createdAt,value
2022-07-25T00:01:59.827Z,31.20
2022-07-25T00:04:27.812Z,31.32
2022-07-25T00:06:55.701Z,31.05
2022-07-25T00:09:22.856Z,31.31
2022-07-25T00:11:50.112Z,31.40
2022-07-25T00:14:17.387Z,31.33
2022-07-25T00:16:45.061Z,31.23
2022-07-25T00:19:12.351Z,31.27
2022-07-25T00:21:42.125Z,31.13
2022-07-25T00:24:09.924Z,30.76
2022-07-25T00:26:40.217Z,30.97
2022-07-25T00:29:08.041Z,30.53
2022-07-25T00:31:38.221Z,30.54
2022-07-25T00:34:05.694Z,30.60
2022-07-25T00:36:33.182Z,30.75
2022-07-25T00:39:00.395Z,31.01
2022-07-25T00:41:27.845Z,31.14
2022-07-25T00:43:56.167Z,30.78
2022-07-25T00:46:23.912Z,30.86
2022-07-25T00:48:51.486Z,30.66
2022-07-25T00:51:39.040Z,30.66
2022-07-25T00:54:06.761Z,30.32
2022-07-25T00:56:46.405Z,29.89
2022-07-25T00:59:13.824Z,30.03
2022-07-25T01:01:42.698Z,29.91
2022-07-25T01:04:09.960Z,29.99
2022-07-25T01:06:37.198Z,30.36
2022-07-25T01:09:04.462Z,30.55
2022-07-25T01:11:31.657Z,30.58
2022-07-25T01:13:59.538Z,30.51
2022-07-25T01:16:26.806Z,30.59
2022-07-25T01:18:54.402Z,30.52
2022-07-25T01:21:30.594Z,30.27
2022-07-25T01:23:57.843Z,30.28
2022-07-25T01:26:25.140Z,30.22
2022-07-25T01:28:52.778Z,30.64
2022-07-25T01:31:26.061Z,30.50
2022-07-25T01:33:53.440Z,30.73
2022-07-25T01:36:20.696Z,30.57
2022-07-25T01:38:47.908Z,30.51
2022-07-25T01:41:22.418Z,30.64
2022-07-25T01:43:50.175Z,30.34
2022-07-25T01:46:17.583Z,30.14
2022-07-25T01:48:45.000Z,29.99
2022-07-25T01:51:12.323Z,30.09
2022-07-25T01:54:10.439Z,30.24
2022-07-25T01:56:37.896Z,30.39
2022-07-25T01:59:06.421Z,29.97
2022-07-25T02:01:33.662Z,29.79
2022-07-25T02:04:01.037Z,29.63
2022-07-25T02:06:28.392Z,30.00
2022-07-25T02:08:55.605Z,29.88
2022-07-25T02:11:22.950Z,29.77
2022-07-25T02:13:50.213Z,29.53
2022-07-25T02:16:17.905Z,29.80
2022-07-25T02:18:46.029Z,29.88
2022-07-25T02:21:15.035Z,30.03
2022-07-25T02:23:43.039Z,30.31
2022-07-25T02:26:10.557Z,30.46
2022-07-25T02:28:37.929Z,30.43
2022-07-25T02:31:05.233Z,30.08
2022-07-25T02:33:32.492Z,30.37
2022-07-25T02:35:59.654Z,30.30
2022-07-25T02:38:26.855Z,30.03
2022-07-25T02:40:57.064Z,30.20
2022-07-25T02:43:24.314Z,30.24
2022-07-25T02:45:51.797Z,30.46
2022-07-25T02:48:19.196Z,30.61
2022-07-25T02:50:46.396Z,30.56
2022-07-25T02:53:14.142Z,30.63
2022-07-25T02:55:45.451Z,30.71
2022-07-25T02:58:14.982Z,30.71
2022-07-25T03:00:42.540Z,30.01
2022-07-25T03:03:11.695Z,29.75
2022-07-25T03:05:38.936Z,29.91
2022-07-25T03:08:06.200Z,29.90
2022-07-25T03:10:34.389Z,29.90
2022-07-25T03:13:01.757Z,29.99
2022-07-25T03:15:28.984Z,29.93
2022-07-25T03:17:56.215Z,30.07
2022-07-25T03:20:23.504Z,30.10
2022-07-25T03:22:50.757Z,30.15
2022-07-25T03:25:21.691Z,30.16
2022-07-25T03:27:51.994Z,29.70
2022-07-25T03:30:19.584Z,28.65
2022-07-25T03:32:46.905Z,29.08
2022-07-25T03:35:14.177Z,28.51
2022-07-25T03:37:41.524Z,28.69
2022-07-25T03:40:09.258Z,28.95
2022-07-25T03:42:36.582Z,28.71
2022-07-25T03:45:04.360Z,28.91
2022-07-25T03:47:31.583Z,29.22
2022-07-25T03:49:58.837Z,29.39
2022-07-25T03:52:26.142Z,29.49
2022-07-25T03:54:53.637Z,29.50
2022-07-25T03:57:20.918Z,29.29
2022-07-25T03:59:48.177Z,29.34
2022-07-25T04:02:15.424Z,29.29
2022-07-25T04:04:42.716Z,29.57
2022-07-25T04:07:09.946Z,29.75
2022-07-25T04:09:37.940Z,29.85
2022-07-25T04:12:05.442Z,29.64
2022-07-25T04:14:32.745Z,29.29
2022-07-25T04:17:00.063Z,29.62
2022-07-25T04:19:50.133Z,29.77
2022-07-25T04:22:18.164Z,29.93
2022-07-25T04:24:45.479Z,30.05
2022-07-25T04:27:12.685Z,30.07
2022-07-25T04:29:39.948Z,30.06
2022-07-25T04:32:07.441Z,30.14
2022-07-25T04:34:34.650Z,30.15
2022-07-25T04:37:01.957Z,30.09
2022-07-25T04:39:29.158Z,29.99
2022-07-25T04:42:00.278Z,29.86
2022-07-25T04:44:27.490Z,29.91
2022-07-25T04:46:54.661Z,29.92
2022-07-25T04:49:21.858Z,29.89
2022-07-25T04:51:49.111Z,30.00
2022-07-25T04:54:16.303Z,29.95
2022-07-25T04:56:46.827Z,30.01
2022-07-25T04:59:14.043Z,30.03
2022-07-25T05:01:41.257Z,30.03
2022-07-25T05:04:08.621Z,29.96
2022-07-25T05:06:35.959Z,29.78
2022-07-25T05:09:03.290Z,29.83
2022-07-25T05:11:30.532Z,29.87
2022-07-25T05:13:57.916Z,29.98
2022-07-25T05:16:25.189Z,30.16
2022-07-25T05:18:52.489Z,30.26
2022-07-25T05:21:19.739Z,30.34
2022-07-25T05:23:47.116Z,30.48
2022-07-25T05:26:14.351Z,30.43
2022-07-25T05:28:43.667Z,30.49
2022-07-25T05:31:13.128Z,30.34
2022-07-25T05:33:42.886Z,30.41
2022-07-25T05:36:10.129Z,30.42
2022-07-25T05:38:40.137Z,30.23
2022-07-25T05:41:07.444Z,30.44
2022-07-25T05:43:34.654Z,30.51
2022-07-25T05:46:02.607Z,30.42
2022-07-25T05:48:30.111Z,30.49
2022-07-25T05:50:59.168Z,30.41
2022-07-25T05:53:26.511Z,30.56
2022-07-25T05:55:53.946Z,30.62
2022-07-25T05:58:23.980Z,30.38
2022-07-25T06:00:55.088Z,30.62
2022-07-25T06:03:22.325Z,30.64
2022-07-25T06:05:49.624Z,30.32
2022-07-25T06:08:16.829Z,30.27
2022-07-25T06:10:44.536Z,30.21
2022-07-25T06:13:12.443Z,30.28
2022-07-25T06:15:39.807Z,30.45
2022-07-25T06:18:07.021Z,30.66
2022-07-25T06:20:45.319Z,30.70
2022-07-25T06:23:12.604Z,30.56
2022-07-25T06:25:39.864Z,30.65
2022-07-25T06:28:07.356Z,30.72
2022-07-25T06:30:38.025Z,30.77
2022-07-25T06:33:05.245Z,30.82
2022-07-25T06:35:32.529Z,30.90
2022-07-25T06:37:59.791Z,31.04
2022-07-25T06:40:27.048Z,30.92
2022-07-25T06:42:54.424Z,30.87
2022-07-25T06:45:25.234Z,30.90
2022-07-25T06:47:52.695Z,30.68
2022-07-25T06:50:21.126Z,30.71
2022-07-25T06:52:49.045Z,30.64
2022-07-25T06:55:16.439Z,30.71
2022-07-25T06:57:43.640Z,31.00
2022-07-25T07:00:12.228Z,31.03
2022-07-25T07:02:51.988Z,31.14
2022-07-25T07:05:19.485Z,31.19
2022-07-25T07:07:47.930Z,31.19
2022-07-25T07:10:33.800Z,31.35
2022-07-25T07:13:05.589Z,31.35
2022-07-25T07:15:35.327Z,31.26
2022-07-25T07:18:02.520Z,31.38
2022-07-25T07:20:29.880Z,31.69
2022-07-25T07:22:57.163Z,32.02
2022-07-25T07:25:28.389Z,31.91
2022-07-25T07:28:28.174Z,31.68
2022-07-25T07:33:43.410Z,31.57
2022-07-25T07:36:11.343Z,31.42
2022-07-25T07:38:41.630Z,31.43
2022-07-25T07:41:08.925Z,31.09
2022-07-25T07:43:36.320Z,31.05
2022-07-25T07:46:03.722Z,31.52
2022-07-25T07:48:31.335Z,31.55
2022-07-25T07:50:59.004Z,31.69
2022-07-25T07:53:46.249Z,31.80
2022-07-25T07:56:13.998Z,31.56
2022-07-25T07:58:41.242Z,31.71
2022-07-25T08:01:08.551Z,31.68
2022-07-25T08:03:46.584Z,31.88
2022-07-25T08:06:13.838Z,32.22
2022-07-25T08:08:41.698Z,32.49
2022-07-25T08:11:08.969Z,32.36
2022-07-25T08:13:38.161Z,32.11
2022-07-25T08:16:05.742Z,32.34
2022-07-25T08:18:33.494Z,32.31
2022-07-25T08:21:03.074Z,32.54
2022-07-25T08:23:32.056Z,32.77
2022-07-25T08:25:59.461Z,32.69
2022-07-25T08:28:26.733Z,33.03
2022-07-25T08:30:54.355Z,32.57
2022-07-25T08:33:21.666Z,32.68
2022-07-25T08:35:53.685Z,32.71
2022-07-25T08:38:21.584Z,32.81
2022-07-25T08:40:48.950Z,32.88
2022-07-25T08:43:18.025Z,32.54
2022-07-25T08:45:49.965Z,32.63
2022-07-25T08:48:18.114Z,32.97
2022-07-25T08:50:46.128Z,32.84
2022-07-25T08:53:32.811Z,32.65
2022-07-25T08:56:04.217Z,32.56
2022-07-25T08:58:35.289Z,32.56
2022-07-25T09:01:02.828Z,32.90
2022-07-25T09:03:38.928Z,33.22
2022-07-25T09:06:19.506Z,33.47
2022-07-25T09:08:56.993Z,33.19
2022-07-25T09:11:27.592Z,33.22
2022-07-25T09:14:15.305Z,33.41
2022-07-25T09:16:44.387Z,33.04
2022-07-25T09:19:11.993Z,33.31
2022-07-25T09:22:10.226Z,33.46
2022-07-25T09:24:44.438Z,33.35
2022-07-25T09:27:12.828Z,33.25
2022-07-25T09:29:42.489Z,33.16
2022-07-25T09:32:15.751Z,33.33
2022-07-25T09:34:43.763Z,33.11
2022-07-25T09:37:14.965Z,33.05
2022-07-25T09:39:47.158Z,33.43
2022-07-25T09:42:15.474Z,33.55
2022-07-25T09:44:42.785Z,34.29
2022-07-25T09:47:13.511Z,33.98
2022-07-25T09:49:44.776Z,34.09
2022-07-25T09:52:12.186Z,33.98
2022-07-25T09:54:39.812Z,34.30
2022-07-25T09:57:08.231Z,34.05
2022-07-25T09:59:35.837Z,34.06
2022-07-25T10:02:15.606Z,34.72
2022-07-25T10:04:47.227Z,34.83
2022-07-25T10:07:14.880Z,34.89
2022-07-25T10:09:49.059Z,34.72
2022-07-25T10:12:19.990Z,34.91
2022-07-25T10:15:06.120Z,34.57
2022-07-25T10:17:34.826Z,34.75
2022-07-25T10:20:03.914Z,34.70
2022-07-25T10:22:55.093Z,34.18
2022-07-25T10:25:22.783Z,34.28
2022-07-25T10:27:52.781Z,34.75
2022-07-25T10:30:20.435Z,35.13
2022-07-25T10:32:51.342Z,34.67
2022-07-25T10:35:18.621Z,35.02
2022-07-25T10:37:49.126Z,35.25
2022-07-25T10:40:32.284Z,35.05
2022-07-25T10:43:22.587Z,34.83
2022-07-25T10:45:51.759Z,35.11
2022-07-25T10:48:23.410Z,35.50
2022-07-25T10:50:57.474Z,35.67
2022-07-25T10:53:31.893Z,36.09
2022-07-25T10:56:06.103Z,36.36
2022-07-25T10:58:48.162Z,36.64
2022-07-25T11:01:19.756Z,36.81
2022-07-25T11:03:47.140Z,36.76
2022-07-25T11:06:15.292Z,36.87
2022-07-25T11:08:43.101Z,36.66
2022-07-25T11:11:10.752Z,37.21
2022-07-25T11:13:38.620Z,37.84
2022-07-25T11:16:05.943Z,38.34
2022-07-25T11:18:34.259Z,37.90
2022-07-25T11:21:06.217Z,38.32
2022-07-25T11:23:37.163Z,39.84
2022-07-25T11:26:08.369Z,39.54
2022-07-25T11:28:42.104Z,39.92
2022-07-25T11:31:09.682Z,38.95
2022-07-25T11:33:38.779Z,40.70
2022-07-25T11:36:32.229Z,41.45
2022-07-25T11:38:59.427Z,40.22
2022-07-25T11:41:29.979Z,39.41
2022-07-25T11:43:57.419Z,39.68
2022-07-25T11:46:24.765Z,41.17
2022-07-25T11:48:51.997Z,42.16
2022-07-25T11:51:19.625Z,43.06
2022-07-25T11:53:48.091Z,41.82
2022-07-25T11:56:40.712Z,41.07
2022-07-25T11:59:02.721Z,42.22
2022-07-25T12:01:33.864Z,44.26
2022-07-25T12:04:11.254Z,41.46
2022-07-25T12:06:39.444Z,40.90
2022-07-25T12:09:12.924Z,40.63
2022-07-25T12:11:43.697Z,40.55
2022-07-25T12:14:11.642Z,42.32
2022-07-25T12:16:38.926Z,41.42
2022-07-25T12:19:09.632Z,40.57
2022-07-25T12:21:37.576Z,41.23
2022-07-25T12:24:05.033Z,41.60
2022-07-25T12:26:32.196Z,40.85
2022-07-25T12:28:59.476Z,40.76
2022-07-25T12:31:28.694Z,42.90
2022-07-25T12:33:56.209Z,42.99
2022-07-25T12:36:23.469Z,41.37
2022-07-25T12:38:50.657Z,41.12
2022-07-25T12:41:22.639Z,42.02
2022-07-25T12:43:50.005Z,40.88
2022-07-25T12:46:17.390Z,41.01
2022-07-25T12:48:44.865Z,43.32
2022-07-25T12:51:12.124Z,40.84
2022-07-25T12:53:42.445Z,40.45
2022-07-25T12:56:09.991Z,41.31
2022-07-25T12:58:37.555Z,41.87
2022-07-25T13:01:05.873Z,42.80
2022-07-25T13:03:33.451Z,43.92
2022-07-25T13:06:15.576Z,43.81
2022-07-25T13:08:44.098Z,43.96
2022-07-25T13:11:12.667Z,44.48
2022-07-25T13:13:39.885Z,44.04
2022-07-25T13:16:07.326Z,43.27
2022-07-25T13:18:34.617Z,45.13
2022-07-25T13:21:03.590Z,45.92
2022-07-25T13:23:30.777Z,46.25
2022-07-25T13:26:00.496Z,44.66
2022-07-25T13:28:27.722Z,45.05
2022-07-25T13:30:55.382Z,44.06
2022-07-25T13:33:22.948Z,44.11
2022-07-25T13:35:50.164Z,43.50
2022-07-25T13:38:17.397Z,42.20
2022-07-25T13:40:44.684Z,43.31
2022-07-25T13:43:15.274Z,43.48
2022-07-25T13:45:42.630Z,43.05
2022-07-25T13:48:28.991Z,43.82
2022-07-25T13:50:58.204Z,42.39
2022-07-25T13:53:29.740Z,41.94
2022-07-25T13:55:58.620Z,42.33
2022-07-25T13:58:44.369Z,41.41
2022-07-25T14:01:15.424Z,40.24
2022-07-25T14:03:44.183Z,39.44
2022-07-25T14:06:11.724Z,39.37
2022-07-25T14:08:39.420Z,38.72
2022-07-25T14:11:08.355Z,38.87
2022-07-25T14:13:36.102Z,38.30
2022-07-25T14:16:03.501Z,37.90
2022-07-25T14:18:32.002Z,37.30
2022-07-25T14:20:59.640Z,37.22
2022-07-25T14:23:29.917Z,37.25
2022-07-25T14:25:58.615Z,36.97
2022-07-25T14:28:25.876Z,36.57
2022-07-25T14:30:53.217Z,36.70
2022-07-25T14:33:20.383Z,36.98
2022-07-25T14:35:47.575Z,36.53
2022-07-25T14:38:15.350Z,36.22
2022-07-25T14:40:43.026Z,36.19
2022-07-25T14:43:10.280Z,36.12
2022-07-25T14:45:37.553Z,36.22
2022-07-25T14:48:07.782Z,35.95
2022-07-25T14:50:35.044Z,36.04
2022-07-25T14:53:02.270Z,35.86
2022-07-25T14:55:29.487Z,35.74
2022-07-25T14:57:57.929Z,36.05
2022-07-25T15:00:29.499Z,35.94
2022-07-25T15:02:56.997Z,36.14
2022-07-25T15:05:26.239Z,35.89
2022-07-25T15:07:53.448Z,35.89
2022-07-25T15:10:20.719Z,35.83
2022-07-25T15:12:51.460Z,36.12
2022-07-25T15:15:25.207Z,35.83
2022-07-25T15:17:53.573Z,35.79
2022-07-25T15:20:20.847Z,35.56
2022-07-25T15:22:48.058Z,35.56
2022-07-25T15:25:58.374Z,35.47
2022-07-25T15:28:02.773Z,35.39
2022-07-25T15:30:29.965Z,35.20
2022-07-25T15:32:57.934Z,35.19
2022-07-25T15:35:26.368Z,35.45
2022-07-25T15:37:53.575Z,35.39
2022-07-25T15:40:20.855Z,35.68
2022-07-25T15:42:48.161Z,35.70
2022-07-25T15:45:32.687Z,35.68
2022-07-25T15:48:01.522Z,35.71
2022-07-25T15:50:28.699Z,35.70
2022-07-25T15:52:55.956Z,35.63
2022-07-25T15:55:23.132Z,35.96
2022-07-25T15:57:51.492Z,35.73
2022-07-25T16:00:24.793Z,36.03
2022-07-25T16:02:54.854Z,35.96
2022-07-25T16:05:22.169Z,35.77
2022-07-25T16:07:49.413Z,35.43
2022-07-25T16:10:16.663Z,35.58
2022-07-25T16:12:43.969Z,35.61
2022-07-25T16:15:11.231Z,35.44
2022-07-25T16:17:38.663Z,35.41
2022-07-25T16:20:06.748Z,35.23
2022-07-25T16:22:34.166Z,35.40
2022-07-25T16:25:02.873Z,35.41
2022-07-25T16:27:30.246Z,35.27
2022-07-25T16:29:57.494Z,35.36
2022-07-25T16:32:24.865Z,35.52
2022-07-25T16:34:52.353Z,35.44
2022-07-25T16:37:20.030Z,35.45
2022-07-25T16:39:47.574Z,35.51
2022-07-25T16:42:16.471Z,35.46
2022-07-25T16:44:44.769Z,35.23
2022-07-25T16:47:12.030Z,35.23
2022-07-25T16:49:39.204Z,35.24
2022-07-25T16:52:06.635Z,35.25
2022-07-25T16:54:33.797Z,35.32
2022-07-25T16:57:01.048Z,35.48
2022-07-25T16:59:28.246Z,35.20
2022-07-25T17:01:55.615Z,35.18
2022-07-25T17:04:22.906Z,35.20
2022-07-25T17:06:52.053Z,35.04
2022-07-25T17:09:19.396Z,35.13
2022-07-25T17:11:46.676Z,35.10
2022-07-25T17:14:14.241Z,34.97
2022-07-25T17:16:41.865Z,35.10
2022-07-25T17:19:09.584Z,34.88
2022-07-25T17:21:37.129Z,34.76
2022-07-25T17:24:04.669Z,34.83
2022-07-25T17:26:32.174Z,34.96
2022-07-25T17:29:19.604Z,34.83
2022-07-25T17:31:47.474Z,34.85
2022-07-25T17:34:14.791Z,34.79
2022-07-25T17:36:42.307Z,34.83
2022-07-25T17:39:10.145Z,34.85
2022-07-25T17:41:37.630Z,34.78
2022-07-25T17:44:08.631Z,34.85
2022-07-25T17:46:38.724Z,34.89
2022-07-25T17:49:05.987Z,34.98
2022-07-25T17:51:33.248Z,34.99
2022-07-25T17:54:00.424Z,34.81
2022-07-25T17:56:29.592Z,34.82
2022-07-25T17:58:56.908Z,34.81
2022-07-25T18:01:24.127Z,34.73
2022-07-25T18:03:51.373Z,34.64
2022-07-25T18:06:18.607Z,34.43
2022-07-25T18:08:45.892Z,34.45
2022-07-25T18:11:13.181Z,34.43
2022-07-25T18:13:40.378Z,34.36
2022-07-25T18:16:08.452Z,34.39
2022-07-25T18:18:35.792Z,34.43
2022-07-25T18:21:03.098Z,34.24
2022-07-25T18:23:30.709Z,34.16
2022-07-25T18:25:57.985Z,34.02
2022-07-25T18:28:27.898Z,34.11
2022-07-25T18:30:55.732Z,34.18
2022-07-25T18:33:23.047Z,34.20
2022-07-25T18:35:51.321Z,34.23
2022-07-25T18:38:18.650Z,34.22
2022-07-25T18:40:45.867Z,34.19
2022-07-25T18:43:13.725Z,34.18
2022-07-25T18:45:42.190Z,34.24
2022-07-25T18:48:10.054Z,34.20
2022-07-25T18:50:37.384Z,34.21
2022-07-25T18:53:07.175Z,34.29
2022-07-25T18:55:34.499Z,34.35
2022-07-25T18:58:01.780Z,34.29
2022-07-25T19:00:29.011Z,34.30
2022-07-25T19:02:56.345Z,34.33
2022-07-25T19:06:03.078Z,34.31
2022-07-25T19:08:30.963Z,34.30
2022-07-25T19:10:58.224Z,34.29
2022-07-25T19:13:47.562Z,34.27
2022-07-25T19:16:13.004Z,34.24
2022-07-25T19:18:42.789Z,34.22
2022-07-25T19:21:10.086Z,34.18
2022-07-25T19:23:37.304Z,34.17
2022-07-25T19:26:04.580Z,34.13
2022-07-25T19:28:32.074Z,34.07
2022-07-25T19:30:59.494Z,34.00
2022-07-25T19:33:34.786Z,33.94
2022-07-25T19:36:04.135Z,33.93
2022-07-25T19:38:31.608Z,33.89
2022-07-25T19:40:59.158Z,33.82
2022-07-25T19:43:26.469Z,33.82
2022-07-25T19:45:54.104Z,33.50
2022-07-25T19:48:24.384Z,33.59
2022-07-25T19:50:52.284Z,33.69
2022-07-25T19:53:19.572Z,33.68
2022-07-25T19:55:46.811Z,33.49
2022-07-25T19:58:13.975Z,33.63
2022-07-25T20:00:41.233Z,33.72
2022-07-25T20:03:08.538Z,33.62
2022-07-25T20:05:36.613Z,33.52
2022-07-25T20:08:06.023Z,33.65
2022-07-25T20:10:33.481Z,33.54
2022-07-25T20:13:01.545Z,33.56
2022-07-25T20:15:29.091Z,33.66
2022-07-25T20:17:57.025Z,33.73
2022-07-25T20:20:24.532Z,33.80
2022-07-25T20:22:52.093Z,33.87
2022-07-25T20:25:19.467Z,33.68
2022-07-25T20:27:49.545Z,33.48
2022-07-25T20:30:17.287Z,33.38
2022-07-25T20:32:44.551Z,33.43
2022-07-25T20:35:11.753Z,33.33
2022-07-25T20:37:39.023Z,32.99
2022-07-25T20:40:26.680Z,33.22
2022-07-25T20:42:53.949Z,33.26
2022-07-25T20:45:21.344Z,33.29
2022-07-25T20:48:11.699Z,33.36
2022-07-25T20:50:41.072Z,33.08
2022-07-25T20:53:08.587Z,33.17
2022-07-25T20:55:35.925Z,33.13
2022-07-25T20:58:03.493Z,33.23
2022-07-25T21:00:30.810Z,32.87
2022-07-25T21:03:00.945Z,33.03
2022-07-25T21:05:28.375Z,33.26
2022-07-25T21:07:55.669Z,33.11
2022-07-25T21:10:22.944Z,32.82
2022-07-25T21:12:50.242Z,32.17
2022-07-25T21:15:17.532Z,31.66
2022-07-25T21:17:44.746Z,31.19
2022-07-25T21:20:12.584Z,30.93
2022-07-25T21:22:39.834Z,30.50
2022-07-25T21:25:07.277Z,30.59
2022-07-25T21:27:34.700Z,30.58
2022-07-25T21:30:01.946Z,30.46
2022-07-25T21:32:29.317Z,30.79
2022-07-25T21:34:56.615Z,30.91
2022-07-25T21:37:23.964Z,30.86
2022-07-25T21:39:51.285Z,30.70
2022-07-25T21:42:21.399Z,30.82
2022-07-25T21:44:48.776Z,30.95
2022-07-25T21:47:16.150Z,31.05
2022-07-25T21:50:02.042Z,30.94
2022-07-25T21:52:34.509Z,31.16
2022-07-25T21:55:03.564Z,30.91
2022-07-25T21:57:31.325Z,30.96
2022-07-25T21:59:58.627Z,30.87
2022-07-25T22:02:26.051Z,30.92
2022-07-25T22:04:53.361Z,30.90
2022-07-25T22:07:20.733Z,30.74
2022-07-25T22:09:56.783Z,30.95
2022-07-25T22:12:24.663Z,31.13
2022-07-25T22:14:51.995Z,31.45
2022-07-25T22:17:19.304Z,31.40
2022-07-25T22:19:46.681Z,31.10
2022-07-25T22:22:13.985Z,31.04
2022-07-25T22:24:46.302Z,31.24
2022-07-25T22:27:13.965Z,31.10
2022-07-25T22:29:41.377Z,30.76
2022-07-25T22:32:08.743Z,29.97
2022-07-25T22:34:36.058Z,29.81
2022-07-25T22:37:03.376Z,29.27
2022-07-25T22:39:32.067Z,28.68
2022-07-25T22:41:59.349Z,28.63
2022-07-25T22:44:26.693Z,28.23
2022-07-25T22:46:54.019Z,28.29
2022-07-25T22:49:23.402Z,28.25
2022-07-25T22:51:51.028Z,28.25
2022-07-25T22:54:18.304Z,28.49
2022-07-25T22:56:45.609Z,28.57
2022-07-25T22:59:13.134Z,28.85
2022-07-25T23:01:40.421Z,29.00
2022-07-25T23:04:07.801Z,29.48
2022-07-25T23:06:35.162Z,29.46
2022-07-25T23:09:02.513Z,29.86
2022-07-25T23:11:29.827Z,30.05
2022-07-25T23:13:57.201Z,30.59
2022-07-25T23:16:27.635Z,30.58
2022-07-25T23:18:55.838Z,30.18
2022-07-25T23:21:23.708Z,29.37
2022-07-25T23:23:52.534Z,29.22
2022-07-25T23:26:19.888Z,29.36
2022-07-25T23:28:47.182Z,29.19
2022-07-25T23:31:14.550Z,29.61
2022-07-25T23:33:41.942Z,29.79
2022-07-25T23:36:09.315Z,30.17
2022-07-25T23:38:37.154Z,29.99
2022-07-25T23:41:04.692Z,30.37
2022-07-25T23:43:55.928Z,30.38
2022-07-25T23:46:20.270Z,30.76
2022-07-25T23:48:55.859Z,30.32
2022-07-25T23:51:23.213Z,30.29
2022-07-25T23:53:58.060Z,30.46
2022-07-25T23:56:25.344Z,30.67
2022-07-25T23:58:52.715Z,30.92
